sensor_id;sensor_type;location;lat;lon;timestamp;P1;durP1;ratioP1;P2;durP2;ratioP2
74074;SDS011;62428;51.412;5.432;2023-07-31T00:01:14;12.63;;;2.87;;
74074;SDS011;62428;51.412;5.432;2023-07-31T00:03:39;13.83;;;3.63;;
74074;SDS011;62428;51.412;5.432;2023-07-31T00:06:05;25.97;;;3.77;;
74074;SDS011;62428;51.412;5.432;2023-07-31T00:08:30;17.98;;;3.40;;
74074;SDS011;62428;51.412;5.432;2023-07-31T00:10:56;17.93;;;3.50;;
74074;SDS011;62428;51.412;5.432;2023-07-31T00:13:21;13.43;;;3.17;;
74074;SDS011;62428;51.412;5.432;2023-07-31T00:15:46;13.67;;;3.17;;
74074;SDS011;62428;51.412;5.432;2023-07-31T00:18:12;17.87;;;4.03;;
74074;SDS011;62428;51.412;5.432;2023-07-31T00:20:38;18.25;;;3.58;;
74074;SDS011;62428;51.412;5.432;2023-07-31T00:23:03;14.43;;;3.23;;
74074;SDS011;62428;51.412;5.432;2023-07-31T00:25:28;13.73;;;3.47;;
74074;SDS011;62428;51.412;5.432;2023-07-31T00:27:54;18.77;;;3.80;;
74074;SDS011;62428;51.412;5.432;2023-07-31T00:30:19;18.53;;;3.40;;
74074;SDS011;62428;51.412;5.432;2023-07-31T00:32:44;15.45;;;3.30;;
74074;SDS011;62428;51.412;5.432;2023-07-31T00:35:10;10.77;;;2.70;;
74074;SDS011;62428;51.412;5.432;2023-07-31T00:37:35;14.60;;;2.87;;
74074;SDS011;62428;51.412;5.432;2023-07-31T00:40:01;15.47;;;3.17;;
74074;SDS011;62428;51.412;5.432;2023-07-31T00:42:28;14.82;;;3.03;;
74074;SDS011;62428;51.412;5.432;2023-07-31T00:44:53;12.50;;;2.83;;
74074;SDS011;62428;51.412;5.432;2023-07-31T00:47:19;13.53;;;3.00;;
74074;SDS011;62428;51.412;5.432;2023-07-31T00:49:44;17.53;;;2.60;;
74074;SDS011;62428;51.412;5.432;2023-07-31T00:52:10;17.20;;;2.72;;
74074;SDS011;62428;51.412;5.432;2023-07-31T00:54:36;15.10;;;2.70;;
74074;SDS011;62428;51.412;5.432;2023-07-31T00:57:02;14.47;;;2.43;;
74074;SDS011;62428;51.412;5.432;2023-07-31T00:59:27;11.43;;;2.65;;
74074;SDS011;62428;51.412;5.432;2023-07-31T01:01:53;12.67;;;2.70;;
74074;SDS011;62428;51.412;5.432;2023-07-31T01:04:18;11.87;;;2.60;;
74074;SDS011;62428;51.412;5.432;2023-07-31T01:12:07;13.75;;;2.72;;
74074;SDS011;62428;51.412;5.432;2023-07-31T01:14:37;14.30;;;2.85;;
74074;SDS011;62428;51.412;5.432;2023-07-31T01:17:03;14.03;;;3.37;;
74074;SDS011;62428;51.412;5.432;2023-07-31T01:19:28;20.53;;;3.00;;
74074;SDS011;62428;51.412;5.432;2023-07-31T01:22:04;13.77;;;3.10;;
74074;SDS011;62428;51.412;5.432;2023-07-31T01:27:37;12.18;;;2.78;;
74074;SDS011;62428;51.412;5.432;2023-07-31T01:30:14;14.50;;;3.00;;
74074;SDS011;62428;51.412;5.432;2023-07-31T01:32:42;9.55;;;2.78;;
74074;SDS011;62428;51.412;5.432;2023-07-31T01:35:08;11.47;;;2.53;;
74074;SDS011;62428;51.412;5.432;2023-07-31T01:37:34;12.80;;;2.90;;
74074;SDS011;62428;51.412;5.432;2023-07-31T01:40:00;13.00;;;3.43;;
74074;SDS011;62428;51.412;5.432;2023-07-31T01:42:25;16.17;;;3.60;;
74074;SDS011;62428;51.412;5.432;2023-07-31T01:44:51;10.50;;;2.73;;
74074;SDS011;62428;51.412;5.432;2023-07-31T01:47:16;11.77;;;3.40;;
74074;SDS011;62428;51.412;5.432;2023-07-31T01:49:41;12.30;;;2.93;;
74074;SDS011;62428;51.412;5.432;2023-07-31T01:52:07;12.33;;;2.80;;
74074;SDS011;62428;51.412;5.432;2023-07-31T01:54:32;10.47;;;2.60;;
74074;SDS011;62428;51.412;5.432;2023-07-31T01:56:58;9.43;;;3.00;;
74074;SDS011;62428;51.412;5.432;2023-07-31T01:59:25;10.45;;;3.10;;
74074;SDS011;62428;51.412;5.432;2023-07-31T02:01:50;9.47;;;3.27;;
74074;SDS011;62428;51.412;5.432;2023-07-31T02:04:16;12.23;;;2.83;;
74074;SDS011;62428;51.412;5.432;2023-07-31T02:06:41;12.43;;;3.22;;
74074;SDS011;62428;51.412;5.432;2023-07-31T02:09:08;9.80;;;2.80;;
74074;SDS011;62428;51.412;5.432;2023-07-31T02:11:33;12.50;;;3.00;;
74074;SDS011;62428;51.412;5.432;2023-07-31T02:13:59;9.93;;;2.65;;
74074;SDS011;62428;51.412;5.432;2023-07-31T02:16:24;10.30;;;2.73;;
74074;SDS011;62428;51.412;5.432;2023-07-31T02:18:49;20.33;;;3.30;;
74074;SDS011;62428;51.412;5.432;2023-07-31T02:21:15;19.90;;;3.53;;
74074;SDS011;62428;51.412;5.432;2023-07-31T02:23:40;12.80;;;3.33;;
74074;SDS011;62428;51.412;5.432;2023-07-31T02:26:05;15.30;;;3.00;;
74074;SDS011;62428;51.412;5.432;2023-07-31T02:28:31;9.80;;;2.23;;
74074;SDS011;62428;51.412;5.432;2023-07-31T02:30:56;11.93;;;3.30;;
74074;SDS011;62428;51.412;5.432;2023-07-31T02:33:21;18.23;;;3.38;;
74074;SDS011;62428;51.412;5.432;2023-07-31T02:35:47;10.17;;;2.90;;
74074;SDS011;62428;51.412;5.432;2023-07-31T02:38:12;16.60;;;2.70;;
74074;SDS011;62428;51.412;5.432;2023-07-31T02:40:39;12.73;;;3.40;;
74074;SDS011;62428;51.412;5.432;2023-07-31T02:43:06;17.92;;;3.58;;
74074;SDS011;62428;51.412;5.432;2023-07-31T02:45:32;17.17;;;3.33;;
74074;SDS011;62428;51.412;5.432;2023-07-31T02:47:57;17.57;;;3.03;;
74074;SDS011;62428;51.412;5.432;2023-07-31T02:50:22;14.57;;;3.23;;
74074;SDS011;62428;51.412;5.432;2023-07-31T02:52:48;12.27;;;2.90;;
74074;SDS011;62428;51.412;5.432;2023-07-31T02:55:13;14.03;;;3.07;;
74074;SDS011;62428;51.412;5.432;2023-07-31T02:57:39;9.60;;;2.90;;
74074;SDS011;62428;51.412;5.432;2023-07-31T03:00:04;16.70;;;2.87;;
74074;SDS011;62428;51.412;5.432;2023-07-31T03:02:31;13.68;;;3.03;;
74074;SDS011;62428;51.412;5.432;2023-07-31T03:04:57;18.90;;;4.03;;
74074;SDS011;62428;51.412;5.432;2023-07-31T03:07:22;12.67;;;2.53;;
74074;SDS011;62428;51.412;5.432;2023-07-31T03:09:47;14.77;;;3.20;;
74074;SDS011;62428;51.412;5.432;2023-07-31T03:12:13;15.57;;;2.90;;
74074;SDS011;62428;51.412;5.432;2023-07-31T03:14:38;16.87;;;2.80;;
74074;SDS011;62428;51.412;5.432;2023-07-31T03:17:04;10.60;;;3.10;;
74074;SDS011;62428;51.412;5.432;2023-07-31T03:19:32;15.60;;;3.10;;
74074;SDS011;62428;51.412;5.432;2023-07-31T03:21:58;13.82;;;3.05;;
74074;SDS011;62428;51.412;5.432;2023-07-31T03:24:24;16.33;;;3.33;;
74074;SDS011;62428;51.412;5.432;2023-07-31T03:26:50;13.45;;;3.40;;
74074;SDS011;62428;51.412;5.432;2023-07-31T03:29:15;12.03;;;2.93;;
74074;SDS011;62428;51.412;5.432;2023-07-31T03:31:40;11.13;;;3.13;;
74074;SDS011;62428;51.412;5.432;2023-07-31T03:34:06;12.67;;;2.80;;
74074;SDS011;62428;51.412;5.432;2023-07-31T03:36:31;12.38;;;3.30;;
74074;SDS011;62428;51.412;5.432;2023-07-31T03:38:57;11.30;;;3.17;;
74074;SDS011;62428;51.412;5.432;2023-07-31T03:41:22;12.50;;;3.40;;
74074;SDS011;62428;51.412;5.432;2023-07-31T03:43:50;12.20;;;2.90;;
74074;SDS011;62428;51.412;5.432;2023-07-31T03:46:17;13.57;;;3.47;;
74074;SDS011;62428;51.412;5.432;2023-07-31T03:48:42;11.52;;;2.75;;
74074;SDS011;62428;51.412;5.432;2023-07-31T03:51:08;13.10;;;2.93;;
74074;SDS011;62428;51.412;5.432;2023-07-31T03:53:33;12.87;;;2.83;;
74074;SDS011;62428;51.412;5.432;2023-07-31T03:55:58;16.90;;;3.80;;
74074;SDS011;62428;51.412;5.432;2023-07-31T03:58:24;13.37;;;3.33;;
74074;SDS011;62428;51.412;5.432;2023-07-31T04:00:49;9.37;;;3.23;;
74074;SDS011;62428;51.412;5.432;2023-07-31T04:03:15;10.07;;;3.03;;
74074;SDS011;62428;51.412;5.432;2023-07-31T04:05:40;13.68;;;2.95;;
74074;SDS011;62428;51.412;5.432;2023-07-31T04:08:05;17.63;;;3.07;;
74074;SDS011;62428;51.412;5.432;2023-07-31T04:10:31;13.83;;;3.47;;
74074;SDS011;62428;51.412;5.432;2023-07-31T04:12:58;13.07;;;3.22;;
74074;SDS011;62428;51.412;5.432;2023-07-31T04:15:25;14.68;;;3.17;;
74074;SDS011;62428;51.412;5.432;2023-07-31T04:17:50;10.47;;;3.07;;
74074;SDS011;62428;51.412;5.432;2023-07-31T04:20:16;14.95;;;3.30;;
74074;SDS011;62428;51.412;5.432;2023-07-31T04:22:42;12.07;;;3.30;;
74074;SDS011;62428;51.412;5.432;2023-07-31T04:25:07;13.50;;;3.07;;
74074;SDS011;62428;51.412;5.432;2023-07-31T04:27:33;18.37;;;3.30;;
74074;SDS011;62428;51.412;5.432;2023-07-31T04:29:58;13.93;;;3.78;;
74074;SDS011;62428;51.412;5.432;2023-07-31T04:32:23;10.10;;;3.23;;
74074;SDS011;62428;51.412;5.432;2023-07-31T04:34:49;18.83;;;3.50;;
74074;SDS011;62428;51.412;5.432;2023-07-31T04:37:14;10.30;;;3.40;;
74074;SDS011;62428;51.412;5.432;2023-07-31T04:39:39;10.80;;;3.37;;
74074;SDS011;62428;51.412;5.432;2023-07-31T04:42:05;9.27;;;3.23;;
74074;SDS011;62428;51.412;5.432;2023-07-31T04:44:30;10.75;;;2.70;;
74074;SDS011;62428;51.412;5.432;2023-07-31T04:46:56;14.23;;;3.13;;
74074;SDS011;62428;51.412;5.432;2023-07-31T04:49:21;13.37;;;3.70;;
74074;SDS011;62428;51.412;5.432;2023-07-31T04:51:47;8.70;;;3.60;;
74074;SDS011;62428;51.412;5.432;2023-07-31T04:54:12;10.90;;;3.17;;
74074;SDS011;62428;51.412;5.432;2023-07-31T04:56:39;20.50;;;4.17;;
74074;SDS011;62428;51.412;5.432;2023-07-31T04:59:05;9.38;;;3.00;;
74074;SDS011;62428;51.412;5.432;2023-07-31T05:01:30;12.90;;;3.70;;
74074;SDS011;62428;51.412;5.432;2023-07-31T05:03:56;12.80;;;3.77;;
74074;SDS011;62428;51.412;5.432;2023-07-31T05:06:21;12.70;;;3.30;;
74074;SDS011;62428;51.412;5.432;2023-07-31T05:08:46;11.33;;;3.57;;
74074;SDS011;62428;51.412;5.432;2023-07-31T05:11:12;9.43;;;3.27;;
74074;SDS011;62428;51.412;5.432;2023-07-31T05:13:37;11.20;;;3.03;;
74074;SDS011;62428;51.412;5.432;2023-07-31T05:16:03;10.57;;;3.00;;
74074;SDS011;62428;51.412;5.432;2023-07-31T05:18:28;7.17;;;2.40;;
74074;SDS011;62428;51.412;5.432;2023-07-31T05:20:54;10.48;;;2.72;;
74074;SDS011;62428;51.412;5.432;2023-07-31T05:23:19;6.97;;;2.73;;
74074;SDS011;62428;51.412;5.432;2023-07-31T05:25:44;6.83;;;3.10;;
74074;SDS011;62428;51.412;5.432;2023-07-31T05:28:11;11.90;;;2.50;;
74074;SDS011;62428;51.412;5.432;2023-07-31T05:30:37;9.18;;;2.85;;
74074;SDS011;62428;51.412;5.432;2023-07-31T05:33:02;8.70;;;2.90;;
74074;SDS011;62428;51.412;5.432;2023-07-31T05:35:27;7.60;;;2.40;;
74074;SDS011;62428;51.412;5.432;2023-07-31T05:37:53;10.10;;;2.70;;
74074;SDS011;62428;51.412;5.432;2023-07-31T05:40:18;5.77;;;2.30;;
74074;SDS011;62428;51.412;5.432;2023-07-31T05:42:44;8.57;;;3.17;;
74074;SDS011;62428;51.412;5.432;2023-07-31T05:45:09;7.63;;;2.97;;
74074;SDS011;62428;51.412;5.432;2023-07-31T05:47:35;7.43;;;3.10;;
74074;SDS011;62428;51.412;5.432;2023-07-31T05:50:00;7.68;;;2.42;;
74074;SDS011;62428;51.412;5.432;2023-07-31T05:52:26;7.00;;;2.93;;
74074;SDS011;62428;51.412;5.432;2023-07-31T05:54:51;7.63;;;2.40;;
74074;SDS011;62428;51.412;5.432;2023-07-31T05:57:17;5.13;;;2.33;;
74074;SDS011;62428;51.412;5.432;2023-07-31T05:59:42;7.17;;;2.77;;
74074;SDS011;62428;51.412;5.432;2023-07-31T06:02:08;5.73;;;2.70;;
74074;SDS011;62428;51.412;5.432;2023-07-31T06:04:33;8.23;;;2.75;;
74074;SDS011;62428;51.412;5.432;2023-07-31T06:06:58;12.93;;;3.30;;
74074;SDS011;62428;51.412;5.432;2023-07-31T06:09:24;7.57;;;2.67;;
74074;SDS011;62428;51.412;5.432;2023-07-31T06:11:50;5.32;;;3.00;;
74074;SDS011;62428;51.412;5.432;2023-07-31T06:14:16;7.90;;;3.10;;
74074;SDS011;62428;51.412;5.432;2023-07-31T06:16:41;7.63;;;3.13;;
74074;SDS011;62428;51.412;5.432;2023-07-31T06:19:07;6.20;;;3.13;;
74074;SDS011;62428;51.412;5.432;2023-07-31T06:21:32;6.13;;;3.27;;
74074;SDS011;62428;51.412;5.432;2023-07-31T06:23:58;9.18;;;3.40;;
74074;SDS011;62428;51.412;5.432;2023-07-31T06:26:23;4.97;;;2.60;;
74074;SDS011;62428;51.412;5.432;2023-07-31T06:28:49;8.37;;;3.57;;
74074;SDS011;62428;51.412;5.432;2023-07-31T06:31:14;8.03;;;3.40;;
74074;SDS011;62428;51.412;5.432;2023-07-31T06:33:40;6.57;;;2.93;;
74074;SDS011;62428;51.412;5.432;2023-07-31T06:36:05;8.03;;;3.40;;
74074;SDS011;62428;51.412;5.432;2023-07-31T06:38:31;6.97;;;2.97;;
74074;SDS011;62428;51.412;5.432;2023-07-31T06:40:57;7.45;;;3.08;;
74074;SDS011;62428;51.412;5.432;2023-07-31T06:43:22;6.50;;;2.63;;
74074;SDS011;62428;51.412;5.432;2023-07-31T06:45:47;6.83;;;2.90;;
74074;SDS011;62428;51.412;5.432;2023-07-31T06:48:16;7.43;;;3.00;;
74074;SDS011;62428;51.412;5.432;2023-07-31T06:50:41;6.47;;;2.97;;
74074;SDS011;62428;51.412;5.432;2023-07-31T06:53:06;5.87;;;2.70;;
74074;SDS011;62428;51.412;5.432;2023-07-31T06:55:32;8.63;;;3.00;;
74074;SDS011;62428;51.412;5.432;2023-07-31T06:57:57;5.40;;;3.00;;
74074;SDS011;62428;51.412;5.432;2023-07-31T07:00:23;10.07;;;3.30;;
74074;SDS011;62428;51.412;5.432;2023-07-31T07:02:49;6.77;;;2.60;;
74074;SDS011;62428;51.412;5.432;2023-07-31T07:05:15;7.65;;;3.00;;
74074;SDS011;62428;51.412;5.432;2023-07-31T07:07:42;6.88;;;3.03;;
74074;SDS011;62428;51.412;5.432;2023-07-31T07:10:07;5.03;;;2.80;;
74074;SDS011;62428;51.412;5.432;2023-07-31T07:12:33;6.70;;;2.92;;
74074;SDS011;62428;51.412;5.432;2023-07-31T07:14:59;5.93;;;2.57;;
74074;SDS011;62428;51.412;5.432;2023-07-31T07:17:25;5.28;;;2.42;;
74074;SDS011;62428;51.412;5.432;2023-07-31T07:19:51;5.65;;;2.80;;
74074;SDS011;62428;51.412;5.432;2023-07-31T07:22:17;3.63;;;2.40;;
74074;SDS011;62428;51.412;5.432;2023-07-31T07:24:43;8.68;;;2.53;;
74074;SDS011;62428;51.412;5.432;2023-07-31T07:27:08;6.20;;;2.60;;
74074;SDS011;62428;51.412;5.432;2023-07-31T07:29:34;5.95;;;2.83;;
74074;SDS011;62428;51.412;5.432;2023-07-31T07:32:00;7.40;;;2.45;;
74074;SDS011;62428;51.412;5.432;2023-07-31T07:34:26;5.03;;;2.75;;
74074;SDS011;62428;51.412;5.432;2023-07-31T07:36:52;4.70;;;2.60;;
74074;SDS011;62428;51.412;5.432;2023-07-31T07:39:18;4.77;;;2.83;;
74074;SDS011;62428;51.412;5.432;2023-07-31T07:41:44;6.07;;;2.83;;
74074;SDS011;62428;51.412;5.432;2023-07-31T07:44:09;7.35;;;3.17;;
74074;SDS011;62428;51.412;5.432;2023-07-31T07:46:34;7.93;;;3.13;;
74074;SDS011;62428;51.412;5.432;2023-07-31T07:49:00;6.70;;;3.07;;
74074;SDS011;62428;51.412;5.432;2023-07-31T07:51:25;13.50;;;3.67;;
74074;SDS011;62428;51.412;5.432;2023-07-31T07:53:51;6.68;;;3.17;;
74074;SDS011;62428;51.412;5.432;2023-07-31T07:56:16;8.13;;;3.80;;
74074;SDS011;62428;51.412;5.432;2023-07-31T07:58:42;7.97;;;3.00;;
74074;SDS011;62428;51.412;5.432;2023-07-31T08:01:07;6.70;;;3.83;;
74074;SDS011;62428;51.412;5.432;2023-07-31T08:03:32;9.03;;;3.57;;
74074;SDS011;62428;51.412;5.432;2023-07-31T08:05:58;9.60;;;3.37;;
74074;SDS011;62428;51.412;5.432;2023-07-31T08:08:25;9.60;;;3.65;;
74074;SDS011;62428;51.412;5.432;2023-07-31T08:10:50;10.03;;;3.40;;
74074;SDS011;62428;51.412;5.432;2023-07-31T08:13:16;7.07;;;3.57;;
74074;SDS011;62428;51.412;5.432;2023-07-31T08:15:41;8.47;;;3.47;;
74074;SDS011;62428;51.412;5.432;2023-07-31T08:18:08;8.40;;;4.10;;
74074;SDS011;62428;51.412;5.432;2023-07-31T08:20:34;6.78;;;3.78;;
74074;SDS011;62428;51.412;5.432;2023-07-31T08:22:59;7.37;;;3.50;;
74074;SDS011;62428;51.412;5.432;2023-07-31T08:25:25;11.30;;;3.83;;
74074;SDS011;62428;51.412;5.432;2023-07-31T08:27:50;9.27;;;3.05;;
74074;SDS011;62428;51.412;5.432;2023-07-31T08:30:17;7.37;;;3.47;;
74074;SDS011;62428;51.412;5.432;2023-07-31T08:32:44;10.18;;;3.42;;
74074;SDS011;62428;51.412;5.432;2023-07-31T08:35:09;7.90;;;3.17;;
74074;SDS011;62428;51.412;5.432;2023-07-31T08:37:35;7.10;;;3.22;;
74074;SDS011;62428;51.412;5.432;2023-07-31T08:40:00;7.97;;;3.30;;
74074;SDS011;62428;51.412;5.432;2023-07-31T08:42:26;7.27;;;3.37;;
74074;SDS011;62428;51.412;5.432;2023-07-31T08:44:51;8.70;;;3.67;;
74074;SDS011;62428;51.412;5.432;2023-07-31T08:47:17;10.83;;;3.93;;
74074;SDS011;62428;51.412;5.432;2023-07-31T08:49:44;8.57;;;3.80;;
74074;SDS011;62428;51.412;5.432;2023-07-31T08:52:12;7.30;;;3.70;;
74074;SDS011;62428;51.412;5.432;2023-07-31T08:54:37;7.90;;;3.97;;
74074;SDS011;62428;51.412;5.432;2023-07-31T08:57:03;10.40;;;3.77;;
74074;SDS011;62428;51.412;5.432;2023-07-31T08:59:30;12.02;;;4.05;;
74074;SDS011;62428;51.412;5.432;2023-07-31T09:01:57;7.22;;;3.55;;
74074;SDS011;62428;51.412;5.432;2023-07-31T09:04:33;9.30;;;3.70;;
74074;SDS011;62428;51.412;5.432;2023-07-31T09:07:00;15.20;;;4.23;;
74074;SDS011;62428;51.412;5.432;2023-07-31T09:09:28;8.82;;;4.00;;
74074;SDS011;62428;51.412;5.432;2023-07-31T09:11:54;9.15;;;3.85;;
74074;SDS011;62428;51.412;5.432;2023-07-31T09:14:20;10.63;;;3.10;;
74074;SDS011;62428;51.412;5.432;2023-07-31T09:16:56;6.80;;;3.20;;
74074;SDS011;62428;51.412;5.432;2023-07-31T09:19:31;8.13;;;3.20;;
74074;SDS011;62428;51.412;5.432;2023-07-31T09:21:59;8.38;;;3.58;;
74074;SDS011;62428;51.412;5.432;2023-07-31T09:24:28;9.50;;;3.67;;
74074;SDS011;62428;51.412;5.432;2023-07-31T09:26:55;7.45;;;3.42;;
74074;SDS011;62428;51.412;5.432;2023-07-31T09:29:22;8.73;;;3.47;;
74074;SDS011;62428;51.412;5.432;2023-07-31T09:31:48;9.07;;;3.10;;
74074;SDS011;62428;51.412;5.432;2023-07-31T09:34:13;9.93;;;3.05;;
74074;SDS011;62428;51.412;5.432;2023-07-31T09:36:42;10.57;;;3.30;;
74074;SDS011;62428;51.412;5.432;2023-07-31T09:39:12;10.98;;;3.92;;
74074;SDS011;62428;51.412;5.432;2023-07-31T09:41:39;8.73;;;3.17;;
74074;SDS011;62428;51.412;5.432;2023-07-31T09:44:06;8.65;;;3.53;;
74074;SDS011;62428;51.412;5.432;2023-07-31T09:46:32;8.38;;;3.30;;
74074;SDS011;62428;51.412;5.432;2023-07-31T09:49:07;12.93;;;3.50;;
74074;SDS011;62428;51.412;5.432;2023-07-31T09:51:34;6.50;;;2.72;;
74074;SDS011;62428;51.412;5.432;2023-07-31T09:54:08;6.67;;;3.10;;
74074;SDS011;62428;51.412;5.432;2023-07-31T09:56:36;8.18;;;3.05;;
74074;SDS011;62428;51.412;5.432;2023-07-31T09:59:02;9.63;;;2.90;;
74074;SDS011;62428;51.412;5.432;2023-07-31T10:01:29;7.82;;;3.05;;
74074;SDS011;62428;51.412;5.432;2023-07-31T10:03:54;6.10;;;3.00;;
74074;SDS011;62428;51.412;5.432;2023-07-31T10:06:21;5.15;;;2.95;;
74074;SDS011;62428;51.412;5.432;2023-07-31T10:08:48;8.60;;;2.85;;
74074;SDS011;62428;51.412;5.432;2023-07-31T10:11:17;9.57;;;2.75;;
74074;SDS011;62428;51.412;5.432;2023-07-31T10:13:44;4.50;;;2.27;;
74074;SDS011;62428;51.412;5.432;2023-07-31T10:16:10;8.93;;;2.70;;
74074;SDS011;62428;51.412;5.432;2023-07-31T10:18:37;6.22;;;2.35;;
74074;SDS011;62428;51.412;5.432;2023-07-31T10:21:04;7.35;;;2.63;;
74074;SDS011;62428;51.412;5.432;2023-07-31T10:23:31;4.38;;;2.50;;
74074;SDS011;62428;51.412;5.432;2023-07-31T10:25:56;7.53;;;2.20;;
74074;SDS011;62428;51.412;5.432;2023-07-31T10:28:23;6.82;;;2.58;;
74074;SDS011;62428;51.412;5.432;2023-07-31T10:30:51;6.72;;;2.28;;
74074;SDS011;62428;51.412;5.432;2023-07-31T10:33:17;5.47;;;2.30;;
74074;SDS011;62428;51.412;5.432;2023-07-31T10:35:43;6.38;;;2.95;;
74074;SDS011;62428;51.412;5.432;2023-07-31T10:38:11;6.57;;;2.37;;
74074;SDS011;62428;51.412;5.432;2023-07-31T10:40:37;5.80;;;2.60;;
74074;SDS011;62428;51.412;5.432;2023-07-31T10:43:03;6.82;;;2.40;;
74074;SDS011;62428;51.412;5.432;2023-07-31T10:45:31;7.10;;;2.60;;
74074;SDS011;62428;51.412;5.432;2023-07-31T10:48:12;4.70;;;2.30;;
74074;SDS011;62428;51.412;5.432;2023-07-31T10:50:52;10.27;;;2.97;;
74074;SDS011;62428;51.412;5.432;2023-07-31T10:56:00;6.18;;;2.50;;
74074;SDS011;62428;51.412;5.432;2023-07-31T10:58:26;6.77;;;2.30;;
74074;SDS011;62428;51.412;5.432;2023-07-31T11:00:55;5.90;;;2.33;;
74074;SDS011;62428;51.412;5.432;2023-07-31T11:03:24;8.88;;;2.70;;
74074;SDS011;62428;51.412;5.432;2023-07-31T11:05:51;6.40;;;2.97;;
74074;SDS011;62428;51.412;5.432;2023-07-31T11:08:23;6.40;;;2.20;;
74074;SDS011;62428;51.412;5.432;2023-07-31T11:10:51;8.45;;;2.80;;
74074;SDS011;62428;51.412;5.432;2023-07-31T11:13:44;6.25;;;2.75;;
74074;SDS011;62428;51.412;5.432;2023-07-31T11:16:18;7.15;;;3.05;;
74074;SDS011;62428;51.412;5.432;2023-07-31T11:18:45;7.38;;;3.03;;
74074;SDS011;62428;51.412;5.432;2023-07-31T11:21:16;5.97;;;2.57;;
74074;SDS011;62428;51.412;5.432;2023-07-31T11:23:47;8.18;;;2.67;;
74074;SDS011;62428;51.412;5.432;2023-07-31T11:26:13;6.72;;;2.80;;
74074;SDS011;62428;51.412;5.432;2023-07-31T11:28:39;6.25;;;2.20;;
74074;SDS011;62428;51.412;5.432;2023-07-31T11:31:08;5.35;;;2.47;;
74074;SDS011;62428;51.412;5.432;2023-07-31T11:33:34;5.80;;;2.80;;
74074;SDS011;62428;51.412;5.432;2023-07-31T11:35:59;5.50;;;2.25;;
74074;SDS011;62428;51.412;5.432;2023-07-31T11:38:34;11.27;;;1.97;;
74074;SDS011;62428;51.412;5.432;2023-07-31T11:41:00;6.25;;;2.53;;
74074;SDS011;62428;51.412;5.432;2023-07-31T11:43:28;6.40;;;2.40;;
74074;SDS011;62428;51.412;5.432;2023-07-31T11:45:55;4.40;;;2.17;;
74074;SDS011;62428;51.412;5.432;2023-07-31T11:48:28;7.68;;;2.38;;
74074;SDS011;62428;51.412;5.432;2023-07-31T11:50:59;3.33;;;1.85;;
74074;SDS011;62428;51.412;5.432;2023-07-31T11:53:30;4.60;;;2.20;;
74074;SDS011;62428;51.412;5.432;2023-07-31T11:56:00;6.45;;;2.17;;
74074;SDS011;62428;51.412;5.432;2023-07-31T11:58:29;5.95;;;2.08;;
74074;SDS011;62428;51.412;5.432;2023-07-31T12:00:56;4.63;;;2.45;;
74074;SDS011;62428;51.412;5.432;2023-07-31T12:03:23;4.68;;;2.70;;
74074;SDS011;62428;51.412;5.432;2023-07-31T12:05:48;6.13;;;2.27;;
74074;SDS011;62428;51.412;5.432;2023-07-31T12:08:14;3.60;;;2.17;;
74074;SDS011;62428;51.412;5.432;2023-07-31T12:10:41;6.00;;;2.70;;
74074;SDS011;62428;51.412;5.432;2023-07-31T12:13:11;4.82;;;2.28;;
74074;SDS011;62428;51.412;5.432;2023-07-31T12:15:44;4.72;;;2.22;;
74074;SDS011;62428;51.412;5.432;2023-07-31T12:18:13;7.13;;;2.65;;
74074;SDS011;62428;51.412;5.432;2023-07-31T12:20:44;5.53;;;2.60;;
74074;SDS011;62428;51.412;5.432;2023-07-31T12:23:17;5.88;;;2.47;;
74074;SDS011;62428;51.412;5.432;2023-07-31T12:25:59;8.32;;;2.80;;
74074;SDS011;62428;51.412;5.432;2023-07-31T12:28:38;6.18;;;2.60;;
74074;SDS011;62428;51.412;5.432;2023-07-31T12:31:15;6.60;;;2.92;;
74074;SDS011;62428;51.412;5.432;2023-07-31T12:33:46;10.47;;;2.80;;
74074;SDS011;62428;51.412;5.432;2023-07-31T12:36:15;6.07;;;2.95;;
74074;SDS011;62428;51.412;5.432;2023-07-31T12:38:48;6.43;;;2.90;;
74074;SDS011;62428;51.412;5.432;2023-07-31T12:41:15;9.05;;;3.22;;
74074;SDS011;62428;51.412;5.432;2023-07-31T12:43:41;5.30;;;2.77;;
74074;SDS011;62428;51.412;5.432;2023-07-31T12:46:08;7.90;;;3.00;;
74074;SDS011;62428;51.412;5.432;2023-07-31T12:48:34;7.13;;;3.40;;
74074;SDS011;62428;51.412;5.432;2023-07-31T12:50:59;7.00;;;3.27;;
74074;SDS011;62428;51.412;5.432;2023-07-31T12:53:25;8.30;;;3.10;;
74074;SDS011;62428;51.412;5.432;2023-07-31T12:55:51;10.50;;;3.40;;
74074;SDS011;62428;51.412;5.432;2023-07-31T12:58:16;6.33;;;3.33;;
74074;SDS011;62428;51.412;5.432;2023-07-31T13:00:41;12.20;;;3.40;;
74074;SDS011;62428;51.412;5.432;2023-07-31T13:03:07;6.73;;;3.00;;
74074;SDS011;62428;51.412;5.432;2023-07-31T13:05:33;7.73;;;3.50;;
74074;SDS011;62428;51.412;5.432;2023-07-31T13:07:58;7.15;;;3.25;;
74074;SDS011;62428;51.412;5.432;2023-07-31T13:10:24;5.97;;;2.83;;
74074;SDS011;62428;51.412;5.432;2023-07-31T13:12:51;8.07;;;3.17;;
74074;SDS011;62428;51.412;5.432;2023-07-31T13:15:17;13.33;;;3.83;;
74074;SDS011;62428;51.412;5.432;2023-07-31T13:17:42;11.90;;;3.87;;
74074;SDS011;62428;51.412;5.432;2023-07-31T13:20:07;10.73;;;3.80;;
74074;SDS011;62428;51.412;5.432;2023-07-31T13:22:33;7.77;;;3.20;;
74074;SDS011;62428;51.412;5.432;2023-07-31T13:24:59;7.30;;;3.00;;
74074;SDS011;62428;51.412;5.432;2023-07-31T13:27:24;11.50;;;3.20;;
74074;SDS011;62428;51.412;5.432;2023-07-31T13:29:50;8.57;;;3.27;;
74074;SDS011;62428;51.412;5.432;2023-07-31T13:32:16;9.70;;;3.50;;
74074;SDS011;62428;51.412;5.432;2023-07-31T13:34:43;9.20;;;3.20;;
74074;SDS011;62428;51.412;5.432;2023-07-31T13:37:09;7.57;;;3.00;;
74074;SDS011;62428;51.412;5.432;2023-07-31T13:39:35;7.07;;;2.80;;
74074;SDS011;62428;51.412;5.432;2023-07-31T13:42:01;7.05;;;3.15;;
74074;SDS011;62428;51.412;5.432;2023-07-31T13:44:28;10.07;;;3.57;;
74074;SDS011;62428;51.412;5.432;2023-07-31T13:46:53;8.43;;;3.38;;
74074;SDS011;62428;51.412;5.432;2023-07-31T13:49:18;8.77;;;3.30;;
74074;SDS011;62428;51.412;5.432;2023-07-31T13:51:44;10.03;;;3.40;;
74074;SDS011;62428;51.412;5.432;2023-07-31T13:54:09;10.43;;;3.70;;
74074;SDS011;62428;51.412;5.432;2023-07-31T13:56:36;9.50;;;3.03;;
74074;SDS011;62428;51.412;5.432;2023-07-31T13:59:02;9.57;;;3.37;;
74074;SDS011;62428;51.412;5.432;2023-07-31T14:01:27;10.68;;;3.17;;
74074;SDS011;62428;51.412;5.432;2023-07-31T14:03:53;9.23;;;3.23;;
74074;SDS011;62428;51.412;5.432;2023-07-31T14:06:19;9.13;;;3.50;;
74074;SDS011;62428;51.412;5.432;2023-07-31T14:08:44;6.55;;;3.13;;
74074;SDS011;62428;51.412;5.432;2023-07-31T14:11:09;10.73;;;3.57;;
74074;SDS011;62428;51.412;5.432;2023-07-31T14:13:35;8.20;;;3.37;;
74074;SDS011;62428;51.412;5.432;2023-07-31T14:16:00;10.70;;;3.30;;
74074;SDS011;62428;51.412;5.432;2023-07-31T14:18:25;8.93;;;3.43;;
74074;SDS011;62428;51.412;5.432;2023-07-31T14:20:51;11.00;;;3.40;;
74074;SDS011;62428;51.412;5.432;2023-07-31T14:23:16;10.17;;;3.73;;
74074;SDS011;62428;51.412;5.432;2023-07-31T14:25:42;8.30;;;3.17;;
74074;SDS011;62428;51.412;5.432;2023-07-31T14:28:07;10.13;;;4.07;;
74074;SDS011;62428;51.412;5.432;2023-07-31T14:30:33;7.80;;;3.10;;
74074;SDS011;62428;51.412;5.432;2023-07-31T14:32:58;7.80;;;2.80;;
74074;SDS011;62428;51.412;5.432;2023-07-31T14:35:25;8.88;;;2.75;;
74074;SDS011;62428;51.412;5.432;2023-07-31T14:37:51;7.27;;;2.70;;
74074;SDS011;62428;51.412;5.432;2023-07-31T14:40:16;6.60;;;2.53;;
74074;SDS011;62428;51.412;5.432;2023-07-31T14:42:41;7.60;;;2.93;;
74074;SDS011;62428;51.412;5.432;2023-07-31T14:45:07;7.40;;;2.70;;
74074;SDS011;62428;51.412;5.432;2023-07-31T14:47:32;6.32;;;2.28;;
74074;SDS011;62428;51.412;5.432;2023-07-31T14:49:58;5.53;;;2.50;;